createdAt,value
2023-01-07T00:02:11.333Z,13.95
2023-01-07T00:04:38.567Z,16.75
2023-01-07T00:07:05.927Z,14.65
2023-01-07T00:12:06.489Z,14.80
2023-01-07T00:14:40.289Z,13.63
2023-01-07T00:17:07.513Z,17.77
2023-01-07T00:19:54.403Z,18.60
2023-01-07T00:22:28.271Z,14.45
2023-01-07T00:24:55.844Z,14.45
2023-01-07T00:30:03.467Z,12.00
2023-01-07T00:32:55.189Z,11.80
2023-01-07T00:35:25.659Z,14.90
2023-01-07T00:38:00.189Z,12.45
2023-01-07T00:40:27.464Z,14.80
2023-01-07T00:43:01.248Z,15.18
2023-01-07T00:45:33.637Z,18.20
2023-01-07T00:48:08.340Z,19.20
2023-01-07T00:50:36.494Z,16.13
2023-01-07T00:53:03.654Z,14.23
2023-01-07T00:55:37.314Z,14.88
2023-01-07T00:58:04.657Z,14.05
2023-01-07T01:00:38.385Z,17.83
2023-01-07T01:03:05.704Z,18.85
2023-01-07T01:05:32.873Z,17.40
2023-01-07T01:08:06.746Z,19.50
2023-01-07T01:10:33.959Z,18.05
2023-01-07T01:13:08.372Z,21.98
2023-01-07T01:15:35.599Z,19.17
2023-01-07T01:18:16.264Z,23.08
2023-01-07T01:20:56.214Z,21.90
2023-01-07T01:23:30.321Z,21.67
2023-01-07T01:26:07.928Z,23.52
2023-01-07T01:28:41.363Z,16.00
2023-01-07T01:31:09.281Z,20.42
2023-01-07T01:33:36.469Z,21.42
2023-01-07T01:36:11.305Z,25.48
2023-01-07T01:38:38.560Z,30.67
2023-01-07T01:41:06.278Z,35.40
2023-01-07T01:43:42.429Z,23.77
2023-01-07T01:46:18.716Z,32.75
2023-01-07T01:48:58.390Z,21.48
2023-01-07T01:51:28.262Z,24.83
2023-01-07T01:54:03.437Z,18.98
2023-01-07T01:56:33.020Z,17.30
2023-01-07T01:59:14.411Z,18.35
2023-01-07T02:01:41.702Z,19.63
2023-01-07T02:04:10.925Z,18.38
2023-01-07T02:06:47.311Z,19.40
2023-01-07T02:09:14.669Z,20.15
2023-01-07T02:11:56.279Z,19.60
2023-01-07T02:14:42.005Z,19.90
2023-01-07T02:17:35.260Z,19.48
2023-01-07T02:20:12.304Z,19.42
2023-01-07T02:23:04.281Z,21.60
2023-01-07T02:25:41.898Z,23.13
2023-01-07T02:28:18.352Z,19.98
2023-01-07T02:31:02.464Z,21.23
2023-01-07T02:33:39.322Z,23.42
2023-01-07T02:36:15.226Z,19.50
2023-01-07T02:38:52.452Z,21.75
2023-01-07T02:41:30.938Z,20.90
2023-01-07T02:44:10.304Z,18.35
2023-01-07T02:46:39.500Z,29.05
2023-01-07T02:49:10.087Z,46.85
2023-01-07T02:51:45.311Z,22.02
2023-01-07T02:54:17.312Z,30.45
2023-01-07T02:57:00.377Z,15.13
2023-01-07T02:59:35.132Z,17.85
2023-01-07T03:02:11.332Z,18.10
2023-01-07T03:05:02.637Z,16.20
2023-01-07T03:07:55.381Z,17.35
2023-01-07T03:10:27.317Z,18.98
2023-01-07T03:13:09.420Z,17.83
2023-01-07T03:15:39.821Z,17.95
2023-01-07T03:18:16.299Z,18.27
2023-01-07T03:20:51.347Z,17.90
2023-01-07T03:23:27.318Z,18.10
2023-01-07T03:25:55.663Z,17.23
2023-01-07T03:28:32.428Z,19.67
2023-01-07T03:31:00.634Z,17.88
2023-01-07T03:33:38.570Z,20.60
2023-01-07T03:36:06.881Z,21.65
2023-01-07T03:38:34.419Z,23.15
2023-01-07T03:41:08.312Z,27.60
2023-01-07T03:43:35.513Z,20.55
2023-01-07T03:46:09.567Z,22.42
2023-01-07T03:48:36.900Z,21.05
2023-01-07T03:51:04.168Z,24.45
2023-01-07T03:53:38.362Z,18.10
2023-01-07T03:56:05.659Z,25.98
2023-01-07T03:58:39.356Z,21.58
2023-01-07T04:01:06.915Z,40.17
2023-01-07T04:06:07.709Z,31.13
2023-01-07T04:08:37.091Z,19.73
2023-01-07T04:11:11.474Z,28.15
2023-01-07T04:13:38.684Z,25.77
2023-01-07T04:16:06.235Z,30.25
2023-01-07T04:21:07.762Z,38.42
2023-01-07T04:26:08.311Z,43.42
2023-01-07T04:28:35.518Z,38.70
2023-01-07T04:31:02.690Z,40.33
2023-01-07T04:33:36.343Z,32.38
2023-01-07T04:36:03.789Z,38.60
2023-01-07T04:38:37.437Z,26.88
2023-01-07T04:41:04.602Z,22.40
2023-01-07T04:43:31.831Z,43.30
2023-01-07T04:46:05.532Z,30.48
2023-01-07T04:48:32.711Z,23.05
2023-01-07T04:51:06.521Z,27.77
2023-01-07T04:53:33.756Z,28.80
2023-01-07T04:56:00.857Z,35.75
2023-01-07T04:58:34.321Z,16.52
2023-01-07T05:01:03.753Z,18.27
2023-01-07T05:03:38.417Z,20.40
2023-01-07T05:06:05.737Z,20.75
2023-01-07T05:08:32.958Z,22.50
2023-01-07T05:11:07.724Z,27.08
2023-01-07T05:13:35.458Z,36.00
2023-01-07T05:16:09.552Z,21.50
2023-01-07T05:18:57.272Z,23.05
2023-01-07T05:21:31.371Z,20.40
2023-01-07T05:23:58.575Z,19.05
2023-01-07T05:26:25.718Z,22.38
2023-01-07T05:28:59.371Z,18.50
2023-01-07T05:31:26.851Z,22.17
2023-01-07T05:34:00.719Z,15.85
2023-01-07T05:36:27.904Z,20.23
2023-01-07T05:38:55.741Z,20.17
2023-01-07T05:41:29.462Z,19.05
2023-01-07T05:43:56.642Z,21.52
2023-01-07T05:46:30.524Z,21.05
2023-01-07T05:48:57.789Z,32.67
2023-01-07T05:51:24.932Z,24.92
2023-01-07T05:53:58.315Z,30.55
2023-01-07T05:56:25.507Z,24.42
2023-01-07T05:58:59.396Z,25.42
2023-01-07T06:01:27.222Z,28.10
2023-01-07T06:03:54.472Z,31.30
2023-01-07T06:06:28.330Z,28.92
2023-01-07T06:09:09.349Z,47.30
2023-01-07T06:11:43.391Z,43.17
2023-01-07T06:14:10.480Z,52.78
2023-01-07T06:16:44.428Z,30.58
2023-01-07T06:19:31.258Z,29.30
2023-01-07T06:22:05.497Z,41.85
2023-01-07T06:24:32.649Z,44.45
2023-01-07T06:26:59.833Z,24.77
2023-01-07T06:29:33.451Z,29.17
2023-01-07T06:32:00.614Z,25.33
2023-01-07T06:34:27.853Z,24.70
2023-01-07T06:37:01.423Z,28.00
2023-01-07T06:39:28.583Z,27.27
2023-01-07T06:42:02.608Z,24.90
2023-01-07T06:44:29.775Z,24.42
2023-01-07T06:46:57.022Z,25.85
2023-01-07T06:49:30.427Z,24.55
2023-01-07T06:51:57.558Z,23.42
2023-01-07T06:54:24.783Z,20.40
2023-01-07T06:56:58.359Z,19.20
2023-01-07T06:59:25.533Z,19.67
2023-01-07T07:01:59.528Z,18.58
2023-01-07T07:04:26.734Z,18.95
2023-01-07T07:06:53.899Z,22.27
2023-01-07T07:09:27.348Z,29.15
2023-01-07T07:11:54.531Z,22.10
2023-01-07T07:14:28.493Z,24.58
2023-01-07T07:16:55.663Z,23.23
2023-01-07T07:19:42.491Z,21.92
2023-01-07T07:22:09.843Z,20.23
2023-01-07T07:24:36.959Z,21.20
2023-01-07T07:27:10.592Z,22.20
2023-01-07T07:29:37.701Z,14.55
2023-01-07T07:32:04.934Z,16.73
2023-01-07T07:34:38.359Z,17.80
2023-01-07T07:37:05.564Z,16.50
2023-01-07T07:39:40.486Z,18.10
2023-01-07T07:42:07.774Z,19.60
2023-01-07T07:44:41.482Z,15.77
2023-01-07T07:47:09.922Z,17.90
2023-01-07T07:49:37.028Z,20.33
2023-01-07T07:52:10.681Z,17.85
2023-01-07T07:54:37.858Z,19.48
2023-01-07T07:57:11.405Z,17.55
2023-01-07T07:59:38.561Z,18.10
2023-01-07T08:02:05.926Z,16.80
2023-01-07T08:07:08.671Z,17.85
2023-01-07T08:09:42.574Z,23.02
2023-01-07T08:12:09.751Z,23.85
2023-01-07T08:14:37.193Z,21.10
2023-01-07T08:17:10.516Z,18.98
2023-01-07T08:19:57.317Z,20.30
2023-01-07T08:22:31.388Z,16.15
2023-01-07T08:24:58.642Z,17.48
2023-01-07T08:27:27.875Z,15.68
2023-01-07T08:30:02.465Z,17.30
2023-01-07T08:32:29.682Z,14.10
2023-01-07T08:35:04.439Z,18.77
2023-01-07T08:37:31.962Z,14.80
2023-01-07T08:40:05.989Z,14.35
2023-01-07T08:42:33.352Z,18.42
2023-01-07T08:45:07.654Z,16.67
2023-01-07T08:47:34.807Z,15.00
2023-01-07T08:50:01.935Z,14.63
2023-01-07T08:52:35.607Z,15.82
2023-01-07T08:55:02.763Z,16.30
2023-01-07T08:57:36.445Z,16.63
2023-01-07T09:00:03.686Z,15.95
2023-01-07T09:02:30.887Z,14.48
2023-01-07T09:05:04.425Z,14.55
2023-01-07T09:07:31.659Z,16.40
2023-01-07T09:09:58.824Z,19.00
2023-01-07T09:12:32.407Z,18.90
2023-01-07T14:51:59.684Z,30.05
2023-01-07T14:54:45.192Z,10.88
2023-01-07T14:57:21.503Z,8.25
2023-01-07T15:00:07.725Z,7.57
2023-01-07T15:02:53.634Z,10.10
2023-01-07T15:05:26.818Z,7.72
2023-01-07T15:08:25.497Z,9.13
2023-01-07T15:11:18.474Z,9.25
2023-01-07T15:14:17.479Z,6.25
2023-01-07T15:16:53.461Z,6.30
2023-01-07T15:19:28.598Z,6.07
2023-01-07T15:22:00.937Z,6.63
2023-01-07T15:24:28.214Z,5.75
2023-01-07T15:27:07.742Z,6.10
2023-01-07T15:29:45.321Z,5.95
2023-01-07T15:32:31.611Z,6.18
2023-01-07T15:34:58.935Z,5.88
2023-01-07T15:37:32.606Z,6.00
2023-01-07T15:39:59.785Z,5.30
2023-01-07T15:42:27.709Z,12.50
2023-01-07T15:45:02.553Z,8.00
2023-01-07T15:47:43.811Z,8.68
2023-01-07T15:50:23.490Z,8.43
2023-01-07T15:52:59.930Z,9.82
2023-01-07T15:55:44.640Z,7.20
2023-01-07T15:58:30.356Z,6.78
2023-01-07T16:01:05.885Z,8.07
2023-01-07T16:03:33.693Z,6.18
2023-01-07T16:08:39.592Z,5.20
2023-01-07T16:11:08.969Z,10.45
2023-01-07T16:13:36.852Z,7.40
2023-01-07T16:16:12.498Z,5.90
2023-01-07T16:18:41.216Z,8.98
2023-01-07T16:21:18.544Z,5.55
2023-01-07T16:23:46.581Z,6.20
2023-01-07T16:26:34.514Z,6.20
2023-01-07T16:29:09.508Z,5.33
2023-01-07T16:31:43.534Z,4.70
2023-01-07T16:34:26.084Z,5.40
2023-01-07T16:37:01.513Z,4.75
2023-01-07T16:39:31.100Z,4.50
2023-01-07T16:42:24.525Z,4.57
2023-01-07T16:44:51.678Z,4.95
2023-01-07T16:47:18.795Z,4.55
2023-01-07T16:49:52.543Z,3.90
2023-01-07T16:52:27.536Z,7.88
2023-01-07T16:55:01.614Z,9.52
2023-01-07T16:57:28.909Z,8.82
2023-01-07T16:59:57.195Z,6.82
2023-01-07T17:02:33.571Z,6.88
2023-01-07T17:05:36.510Z,6.00
2023-01-07T17:08:05.866Z,4.00
2023-01-07T17:10:41.417Z,4.55
2023-01-07T17:13:28.551Z,4.10
2023-01-07T17:16:22.684Z,4.35
2023-01-07T17:18:49.974Z,4.63
2023-01-07T17:21:42.432Z,4.20
2023-01-07T17:24:23.408Z,5.10
2023-01-07T17:26:57.444Z,5.05
2023-01-07T17:29:27.363Z,4.75
2023-01-07T17:32:01.573Z,6.10
2023-01-07T17:34:28.860Z,17.55
2023-01-07T17:36:55.976Z,12.10
2023-01-07T17:39:29.497Z,10.80
2023-01-07T17:42:15.300Z,12.38
2023-01-07T17:44:48.644Z,10.82
2023-01-07T17:47:15.829Z,7.88
2023-01-07T17:49:49.711Z,7.60
2023-01-07T17:52:23.471Z,6.55
2023-01-07T17:54:57.569Z,6.22
2023-01-07T17:57:31.436Z,6.55
2023-01-07T17:59:58.693Z,6.75
2023-01-07T18:02:36.444Z,6.47
2023-01-07T18:05:03.740Z,10.73
2023-01-07T18:07:37.562Z,33.15
2023-01-07T18:10:04.846Z,14.10
2023-01-07T18:12:33.160Z,80.07
2023-01-07T18:15:07.611Z,73.03
2023-01-07T18:17:34.782Z,29.42
2023-01-07T18:20:08.677Z,14.05
2023-01-07T18:22:35.923Z,15.57
2023-01-07T18:25:03.036Z,6.95
2023-01-07T18:27:36.787Z,6.43
2023-01-07T18:30:04.091Z,5.22
2023-01-07T18:32:31.182Z,4.50
2023-01-07T18:35:04.594Z,5.10
2023-01-07T18:37:31.820Z,7.07
2023-01-07T18:40:08.621Z,4.13
2023-01-07T18:42:35.973Z,4.20
2023-01-07T18:45:04.023Z,3.97
2023-01-07T18:47:37.620Z,3.05
2023-01-07T18:50:04.945Z,3.00
2023-01-07T18:52:45.551Z,2.63
2023-01-07T18:55:19.484Z,2.67
2023-01-07T18:57:53.516Z,2.90
2023-01-07T19:00:27.449Z,2.40
2023-01-07T19:02:54.625Z,2.50
2023-01-07T19:05:28.492Z,2.35
2023-01-07T19:07:55.811Z,2.63
2023-01-07T19:10:23.443Z,2.70
2023-01-07T19:15:24.768Z,2.53
2023-01-07T19:17:58.628Z,2.83
2023-01-07T19:20:25.871Z,3.70
2023-01-07T19:22:53.066Z,3.92
2023-01-07T19:25:26.534Z,4.80
2023-01-07T19:27:53.718Z,4.88
2023-01-07T19:30:27.676Z,4.63
2023-01-07T19:32:54.961Z,5.53
2023-01-07T19:35:22.034Z,4.82
2023-01-07T19:37:56.645Z,4.63
2023-01-07T19:40:23.947Z,6.20
2023-01-07T19:42:51.032Z,6.05
2023-01-07T19:45:24.552Z,6.40
2023-01-07T19:47:51.989Z,7.80
2023-01-07T19:50:25.569Z,6.50
2023-01-07T19:53:13.466Z,7.50
2023-01-07T19:55:47.530Z,7.87
2023-01-07T19:58:14.788Z,10.32
2023-01-07T20:00:48.690Z,8.75
2023-01-07T20:03:15.879Z,10.48
2023-01-07T20:05:43.006Z,9.27
2023-01-07T20:08:16.527Z,8.70
2023-01-07T20:10:43.747Z,7.22
2023-01-07T20:13:17.552Z,7.10
2023-01-07T20:15:44.768Z,6.57
2023-01-07T20:18:12.347Z,6.28
2023-01-07T20:23:12.754Z,6.03
2023-01-07T20:25:49.645Z,6.07
2023-01-07T20:28:16.805Z,6.47
2023-01-07T20:30:43.920Z,5.43
2023-01-07T20:33:17.638Z,7.18
2023-01-07T20:35:46.554Z,6.25
2023-01-07T20:38:20.580Z,6.55
2023-01-07T20:40:47.735Z,7.10
2023-01-07T20:43:15.096Z,6.60
2023-01-07T20:45:48.693Z,6.63
2023-01-07T20:48:16.038Z,5.85
2023-01-07T20:50:50.605Z,6.93
2023-01-07T20:53:26.277Z,7.50
2023-01-07T20:56:13.573Z,6.50
2023-01-07T20:58:40.755Z,6.07
2023-01-07T21:01:12.297Z,6.13
2023-01-07T21:03:46.623Z,5.15
2023-01-07T21:06:14.639Z,6.18
2023-01-07T21:08:48.612Z,5.22
2023-01-07T21:11:20.028Z,5.05
2023-01-07T21:13:47.726Z,5.22
2023-01-07T21:16:21.654Z,4.80
2023-01-07T21:18:48.994Z,4.15
2023-01-07T21:21:23.598Z,4.22
2023-01-07T21:23:50.842Z,4.55
2023-01-07T21:26:18.560Z,4.18
2023-01-07T21:28:52.541Z,3.70
2023-01-07T21:31:19.744Z,3.85
2023-01-07T21:33:53.617Z,4.03
2023-01-07T21:36:20.779Z,4.28
2023-01-07T21:38:47.985Z,4.63
2023-01-07T21:41:22.550Z,5.25
2023-01-07T21:43:50.100Z,5.30
2023-01-07T21:48:51.978Z,5.28
2023-01-07T21:51:32.589Z,5.15
2023-01-07T21:54:13.491Z,6.07
2023-01-07T21:56:40.694Z,5.60
2023-01-07T21:59:16.510Z,6.10
2023-01-07T22:01:43.761Z,7.13
2023-01-07T22:04:17.725Z,8.05
2023-01-07T22:06:45.430Z,8.15
2023-01-07T22:11:47.647Z,8.67
2023-01-07T22:14:16.811Z,8.80
2023-01-07T22:16:50.701Z,10.98
2023-01-07T22:19:17.965Z,10.18
2023-01-07T22:21:45.143Z,10.75
2023-01-07T22:24:18.702Z,10.98
2023-01-07T22:26:45.843Z,14.18
2023-01-07T22:29:13.223Z,12.07
2023-01-07T22:31:46.619Z,13.18
2023-01-07T22:34:13.815Z,10.98
2023-01-07T22:37:03.756Z,13.73
2023-01-07T22:39:36.549Z,11.40
2023-01-07T22:42:13.739Z,10.40
2023-01-07T22:44:58.700Z,11.00
2023-01-07T22:47:34.596Z,10.57
2023-01-07T22:50:03.319Z,11.52
2023-01-07T22:52:43.621Z,9.15
2023-01-07T22:55:17.516Z,8.95
2023-01-07T22:57:51.712Z,10.45
2023-01-07T23:00:37.690Z,10.30
2023-01-07T23:03:11.772Z,9.68
2023-01-07T23:05:39.795Z,8.52
2023-01-07T23:08:07.404Z,12.05
2023-01-07T23:10:42.608Z,10.93
2023-01-07T23:13:09.893Z,9.73
2023-01-07T23:15:44.635Z,10.65
2023-01-07T23:18:12.245Z,9.95
2023-01-07T23:23:13.688Z,9.20
2023-01-07T23:25:47.997Z,8.77
2023-01-07T23:28:22.628Z,9.43
2023-01-07T23:30:49.787Z,8.20
2023-01-07T23:33:16.944Z,10.13
2023-01-07T23:35:50.639Z,10.15
2023-01-07T23:38:17.913Z,9.82
2023-01-07T23:40:45.983Z,9.15
2023-01-07T23:43:19.585Z,8.50
2023-01-07T23:45:46.796Z,8.82
2023-01-07T23:48:20.621Z,8.50
2023-01-07T23:50:47.796Z,7.47
2023-01-07T23:53:28.744Z,7.38
2023-01-07T23:55:56.541Z,5.13
2023-01-07T23:58:24.542Z,7.20
